createdAt,value
2018-08-14T05:26:47.968Z,3.80
2018-08-14T05:29:16.247Z,4.17
2018-08-14T05:31:44.651Z,3.60
2018-08-14T05:34:12.903Z,4.50
2018-08-14T05:36:41.143Z,4.30
2018-08-14T05:39:10.685Z,4.67
2018-08-14T05:41:38.952Z,4.40
2018-08-14T05:44:22.287Z,4.53
2018-08-14T05:46:50.551Z,4.27
2018-08-14T05:49:18.943Z,5.13
2018-08-14T05:51:47.700Z,5.80
2018-08-14T05:54:16.022Z,5.73
2018-08-14T05:56:45.380Z,5.43
2018-08-14T05:59:13.651Z,5.60
2018-08-14T06:01:42.286Z,5.90
2018-08-14T06:04:10.764Z,5.87
2018-08-14T06:06:39.003Z,5.23
2018-08-14T06:09:08.748Z,5.50
2018-08-14T06:11:36.983Z,6.13
2018-08-14T06:14:05.689Z,6.67
2018-08-14T06:16:33.920Z,5.13
2018-08-14T06:19:02.180Z,6.67
2018-08-14T06:21:30.417Z,6.87
2018-08-14T06:23:58.673Z,6.73
2018-08-14T06:26:26.911Z,7.27
2018-08-14T06:28:55.184Z,5.20
2018-08-14T06:31:23.406Z,5.70
2018-08-14T06:33:51.643Z,4.93
2018-08-14T06:36:19.859Z,5.37
2018-08-14T06:38:48.091Z,5.67
2018-08-14T06:41:16.387Z,6.10
2018-08-14T06:43:44.620Z,5.90
2018-08-14T06:46:12.936Z,6.40
2018-08-14T06:48:41.220Z,8.37
2018-08-14T06:51:09.443Z,8.70
2018-08-14T06:53:37.699Z,10.07
2018-08-14T06:56:05.959Z,9.37
2018-08-14T06:58:34.251Z,9.47
2018-08-14T07:01:02.498Z,9.23
2018-08-14T07:03:30.757Z,9.97
2018-08-14T07:05:59.008Z,9.20
2018-08-14T07:08:27.264Z,8.10
2018-08-14T07:10:55.499Z,7.40
2018-08-14T07:13:23.763Z,7.07
2018-08-14T07:15:52.024Z,8.60
2018-08-14T07:18:20.260Z,7.67
2018-08-14T07:20:48.515Z,7.50
2018-08-14T07:23:16.752Z,6.40
2018-08-14T07:25:44.999Z,5.90
2018-08-14T07:28:13.253Z,5.63
2018-08-14T07:30:41.508Z,5.60
2018-08-14T07:33:09.763Z,6.60
2018-08-14T07:35:38.028Z,6.67
2018-08-14T07:38:06.335Z,5.47
2018-08-14T07:40:34.571Z,5.47
2018-08-14T07:43:02.796Z,5.00
2018-08-14T07:45:33.076Z,6.03
2018-08-14T07:48:01.480Z,5.10
2018-08-14T07:50:29.763Z,5.10
2018-08-14T07:52:58.044Z,4.50
2018-08-14T07:55:26.251Z,5.10
2018-08-14T07:57:54.498Z,4.57
2018-08-14T08:00:23.113Z,5.73
2018-08-14T08:02:52.320Z,4.33
2018-08-14T08:05:20.955Z,5.73
2018-08-14T08:07:49.691Z,4.70
2018-08-14T08:10:18.353Z,4.70
2018-08-14T08:12:46.773Z,3.97
2018-08-14T08:15:16.315Z,3.87
2018-08-14T08:17:44.946Z,3.63
2018-08-14T08:20:22.175Z,3.80
2018-08-14T08:22:50.485Z,3.40
2018-08-14T08:25:18.739Z,3.97
2018-08-14T08:27:46.985Z,5.07
2018-08-14T08:30:15.243Z,3.90
2018-08-14T08:32:43.472Z,3.80
2018-08-14T08:35:11.823Z,3.90
2018-08-14T08:37:40.089Z,4.40
2018-08-14T08:40:08.437Z,3.73
2018-08-14T08:42:36.691Z,4.17
2018-08-14T08:45:05.585Z,4.43
2018-08-14T08:47:33.840Z,4.00
2018-08-14T08:50:02.096Z,3.60
2018-08-14T08:52:30.328Z,4.13
2018-08-14T08:54:58.600Z,3.47
2018-08-14T08:57:26.836Z,3.87
2018-08-14T08:59:55.123Z,3.50
2018-08-14T09:02:23.360Z,3.23
2018-08-14T09:04:51.613Z,3.43
2018-08-14T09:07:19.851Z,3.23
2018-08-14T09:09:48.105Z,3.40
2018-08-14T09:12:16.363Z,3.30
2018-08-14T09:14:44.641Z,3.23
2018-08-14T09:17:12.869Z,3.37
2018-08-14T09:19:41.252Z,3.50
2018-08-14T09:22:09.480Z,3.20
2018-08-14T09:24:37.728Z,3.00
2018-08-14T09:27:06.022Z,3.07
2018-08-14T09:29:34.255Z,2.90
2018-08-14T09:32:02.720Z,3.10
2018-08-14T09:34:30.955Z,3.43
2018-08-14T09:36:59.259Z,2.80
2018-08-14T09:39:27.472Z,2.57
2018-08-14T09:41:55.716Z,2.80
2018-08-14T09:44:23.936Z,2.90
2018-08-14T09:46:52.241Z,2.77
2018-08-14T09:49:20.455Z,3.10
2018-08-14T09:51:48.720Z,3.20
2018-08-14T09:54:16.965Z,3.03
2018-08-14T09:56:45.237Z,2.80
2018-08-14T09:59:13.465Z,3.13
2018-08-14T10:01:47.129Z,3.23
2018-08-14T10:04:20.668Z,3.23
2018-08-14T10:06:54.625Z,2.80
2018-08-14T10:09:23.896Z,3.20
2018-08-14T10:11:52.183Z,3.30
2018-08-14T10:14:21.456Z,3.70
2018-08-14T10:16:49.804Z,3.37
2018-08-14T10:19:18.040Z,3.37
2018-08-14T10:21:46.300Z,3.43
2018-08-14T10:24:14.541Z,3.33
2018-08-14T10:26:42.797Z,3.17
2018-08-14T10:29:11.060Z,3.57
2018-08-14T10:31:39.376Z,3.40
2018-08-14T10:34:07.616Z,3.73
2018-08-14T10:36:35.908Z,3.47
2018-08-14T10:39:05.952Z,4.60
2018-08-14T10:41:34.188Z,3.37
2018-08-14T10:44:02.463Z,3.70
2018-08-14T10:46:30.754Z,3.73
2018-08-14T10:48:58.977Z,3.80
2018-08-14T10:51:27.239Z,3.50
2018-08-14T10:53:55.489Z,3.73
2018-08-14T10:56:23.732Z,3.50
2018-08-14T10:58:51.968Z,3.90
2018-08-14T11:01:20.233Z,3.60
2018-08-14T11:03:48.473Z,3.23
2018-08-14T11:06:16.724Z,3.30
2018-08-14T11:08:44.988Z,3.40
2018-08-14T11:11:18.240Z,3.40
2018-08-14T11:13:46.924Z,3.57
2018-08-14T11:16:15.303Z,3.87
2018-08-14T11:18:43.595Z,3.13
2018-08-14T11:21:11.836Z,3.50
2018-08-14T11:23:40.111Z,3.17
2018-08-14T11:26:08.376Z,3.30
2018-08-14T11:28:36.653Z,3.40
2018-08-14T11:31:04.915Z,3.20
2018-08-14T11:33:33.184Z,3.10
2018-08-14T11:36:05.243Z,3.03
2018-08-14T11:38:33.943Z,2.87
2018-08-14T11:41:02.552Z,2.70
2018-08-14T11:43:30.816Z,2.70
2018-08-14T11:45:59.193Z,2.80
2018-08-14T11:48:27.452Z,2.80
2018-08-14T11:50:55.716Z,2.50
2018-08-14T11:53:23.992Z,2.70
2018-08-14T11:55:52.236Z,2.70
2018-08-14T11:58:20.492Z,2.80
2018-08-14T12:00:48.727Z,3.40
2018-08-14T12:03:16.985Z,2.77
2018-08-14T12:05:45.220Z,2.60
2018-08-14T12:08:13.463Z,2.87
2018-08-14T12:10:41.701Z,2.63
2018-08-14T12:13:09.954Z,3.33
2018-08-14T12:15:38.219Z,2.43
2018-08-14T12:18:06.496Z,2.47
2018-08-14T12:20:34.736Z,2.70
2018-08-14T12:23:02.994Z,2.53
2018-08-14T12:25:31.225Z,2.60
2018-08-14T12:27:59.475Z,2.60
2018-08-14T12:30:27.721Z,2.90
2018-08-14T12:32:55.964Z,2.70
2018-08-14T12:35:24.219Z,2.53
2018-08-14T12:37:52.472Z,3.17
2018-08-14T12:40:20.753Z,3.00
2018-08-14T12:42:48.996Z,2.43
2018-08-14T12:45:19.069Z,3.00
2018-08-14T12:47:47.334Z,2.57
2018-08-14T12:50:16.808Z,2.83
2018-08-14T12:52:45.072Z,2.50
2018-08-14T12:55:13.811Z,2.50
2018-08-14T12:57:42.240Z,2.47
2018-08-14T13:00:13.239Z,2.60
2018-08-14T13:02:41.488Z,2.87
2018-08-14T13:05:09.744Z,2.53
2018-08-14T13:07:37.967Z,3.17
2018-08-14T13:10:07.464Z,2.67
2018-08-14T13:12:35.719Z,2.63
2018-08-14T13:15:04.613Z,2.80
2018-08-14T13:17:32.829Z,2.90
2018-08-14T13:20:01.084Z,2.70
2018-08-14T13:22:29.321Z,2.30
2018-08-14T13:24:57.573Z,2.60
2018-08-14T13:27:25.822Z,2.60
2018-08-14T13:29:54.088Z,2.40
2018-08-14T13:32:22.339Z,2.33
2018-08-14T13:34:50.585Z,2.80
2018-08-14T13:37:18.852Z,3.20
2018-08-14T13:39:47.096Z,2.50
2018-08-14T13:42:15.333Z,2.63
2018-08-14T13:44:43.590Z,2.63
2018-08-14T13:47:11.836Z,2.30
2018-08-14T13:49:40.088Z,3.07
2018-08-14T13:52:08.470Z,2.63
2018-08-14T13:54:36.728Z,2.73
2018-08-14T13:57:04.956Z,2.53
2018-08-14T13:59:33.209Z,2.40
2018-08-14T14:02:01.452Z,2.30
2018-08-14T14:04:29.704Z,2.40
2018-08-14T14:06:57.928Z,2.40
2018-08-14T14:09:26.183Z,2.97
2018-08-14T14:11:54.436Z,3.13
2018-08-14T14:14:22.725Z,2.73
2018-08-14T14:16:50.980Z,2.80
2018-08-14T14:19:19.232Z,3.27
2018-08-14T14:21:47.476Z,3.17
2018-08-14T14:24:15.740Z,3.00
2018-08-14T14:26:43.975Z,3.17
2018-08-14T14:29:12.232Z,2.67
2018-08-14T14:31:40.475Z,2.50
2018-08-14T14:34:08.727Z,2.83
2018-08-14T14:36:36.964Z,2.70
2018-08-14T14:39:07.696Z,2.60
2018-08-14T14:41:36.092Z,3.00
2018-08-14T14:44:04.504Z,2.50
2018-08-14T14:46:32.737Z,3.03
2018-08-14T14:49:00.990Z,3.00
2018-08-14T14:51:29.397Z,3.20
2018-08-14T14:53:57.637Z,3.40
2018-08-14T14:56:25.892Z,3.40
2018-08-14T14:58:54.135Z,3.17
2018-08-14T15:01:22.397Z,3.63
2018-08-14T15:03:50.632Z,3.27
2018-08-14T15:06:18.891Z,3.30
2018-08-14T15:08:47.159Z,2.70
2018-08-14T15:11:16.224Z,3.37
2018-08-14T15:13:44.452Z,2.97
2018-08-14T15:16:12.725Z,3.50
2018-08-14T15:18:40.952Z,3.07
2018-08-14T15:21:09.211Z,3.40
2018-08-14T15:23:37.460Z,2.93
2018-08-14T15:26:05.717Z,3.10
2018-08-14T15:29:01.875Z,2.70
2018-08-14T15:31:30.136Z,2.73
2018-08-14T15:33:58.780Z,2.70
2018-08-14T15:36:28.912Z,3.77
2018-08-14T15:38:58.410Z,3.47
2018-08-14T15:41:26.924Z,3.70
2018-08-14T15:43:55.191Z,3.03
2018-08-14T15:46:23.635Z,3.80
2018-08-14T15:48:51.899Z,3.60
2018-08-14T15:51:20.175Z,3.50
2018-08-14T15:53:49.140Z,3.50
2018-08-14T15:56:17.416Z,3.87
2018-08-14T15:58:45.680Z,3.90
2018-08-14T16:01:13.944Z,3.90
2018-08-14T16:03:42.173Z,3.47
2018-08-14T16:06:10.425Z,3.27
2018-08-14T16:08:38.640Z,3.27
2018-08-14T16:11:06.949Z,3.90
2018-08-14T16:13:35.197Z,3.30
2018-08-14T16:16:03.557Z,3.73
2018-08-14T16:18:31.851Z,3.30
2018-08-14T16:21:00.132Z,3.13
2018-08-14T16:23:28.408Z,2.93
2018-08-14T16:25:56.691Z,2.70
2018-08-14T16:28:24.972Z,2.43
2018-08-14T16:30:53.278Z,2.60
2018-08-14T16:33:21.536Z,2.93
2018-08-14T16:35:49.852Z,2.50
2018-08-14T16:38:18.108Z,2.40
2018-08-14T16:40:46.443Z,2.63
2018-08-14T16:43:14.700Z,2.60
2018-08-14T16:45:42.996Z,2.57
2018-08-14T16:48:11.253Z,2.67
2018-08-14T16:50:39.511Z,2.93
2018-08-14T16:53:08.069Z,2.43
2018-08-14T16:55:36.360Z,2.70
2018-08-14T16:58:04.756Z,2.63
2018-08-14T17:00:34.780Z,2.40
2018-08-14T17:03:03.161Z,2.60
2018-08-14T17:05:31.432Z,2.53
2018-08-14T17:07:59.733Z,2.90
2018-08-14T17:10:28.144Z,2.70
2018-08-14T17:12:57.205Z,2.77
2018-08-14T17:15:25.904Z,3.80
2018-08-14T17:17:54.172Z,2.83
2018-08-14T17:20:21.432Z,2.60
2018-08-14T17:22:49.673Z,2.20
2018-08-14T17:25:17.930Z,2.83
2018-08-14T17:27:48.569Z,2.43
2018-08-14T17:30:19.844Z,2.53
2018-08-14T17:32:48.802Z,3.33
2018-08-14T17:35:17.079Z,2.70
2018-08-14T17:37:45.413Z,2.73
2018-08-14T17:40:15.636Z,2.93
2018-08-14T17:42:44.062Z,2.83
2018-08-14T17:45:15.631Z,2.90
2018-08-14T17:47:43.880Z,2.33
2018-08-14T17:50:12.139Z,3.37
2018-08-14T17:52:40.408Z,3.17
2018-08-14T17:55:09.022Z,2.90
2018-08-14T17:57:37.408Z,2.70
2018-08-14T18:00:11.469Z,3.10
2018-08-14T18:02:40.029Z,3.00
2018-08-14T18:05:08.660Z,3.60
2018-08-14T18:07:37.071Z,3.37
2018-08-14T18:10:07.240Z,3.30
2018-08-14T18:12:36.124Z,3.10
2018-08-14T18:15:05.059Z,3.53
2018-08-14T18:17:33.328Z,3.70
2018-08-14T18:20:01.593Z,3.90
2018-08-14T18:22:29.876Z,3.30
2018-08-14T18:24:58.083Z,3.30
2018-08-14T18:27:26.324Z,3.70
2018-08-14T18:29:54.552Z,3.50
2018-08-14T18:32:22.796Z,2.73
2018-08-14T18:34:51.024Z,3.30
2018-08-14T18:37:19.276Z,3.03
2018-08-14T18:39:47.508Z,3.47
2018-08-14T18:42:15.771Z,2.90
2018-08-14T18:44:44.014Z,3.00
2018-08-14T18:47:12.306Z,3.20
2018-08-14T18:49:40.549Z,3.03
2018-08-14T18:52:08.803Z,2.90
2018-08-14T18:54:37.023Z,2.80
2018-08-14T18:57:05.411Z,3.20
2018-08-14T18:59:33.877Z,3.33
2018-08-14T19:02:02.089Z,3.23
2018-08-14T19:04:30.320Z,3.23
2018-08-14T19:06:58.872Z,3.23
2018-08-14T19:09:27.513Z,3.40
2018-08-14T19:11:55.796Z,3.30
2018-08-14T19:14:24.047Z,3.77
2018-08-14T19:16:52.291Z,3.83
2018-08-14T19:19:20.572Z,3.33
2018-08-14T19:21:48.817Z,3.70
2018-08-14T19:24:17.224Z,3.67
2018-08-14T19:26:45.657Z,4.00
2018-08-14T19:29:13.911Z,3.80
2018-08-14T19:31:42.143Z,4.00
